createdAt,value
2022-10-23T00:02:14.160Z,19.42
2022-10-23T00:04:44.305Z,21.02
2022-10-23T00:07:14.437Z,19.33
2022-10-23T00:09:44.530Z,15.60
2022-10-23T00:12:14.710Z,14.70
2022-10-23T00:14:44.865Z,17.38
2022-10-23T00:17:15.026Z,14.95
2022-10-23T00:19:45.081Z,14.85
2022-10-23T00:22:15.157Z,15.23
2022-10-23T00:24:45.270Z,15.27
2022-10-23T00:27:15.441Z,21.52
2022-10-23T00:29:45.814Z,17.50
2022-10-23T00:32:15.952Z,13.90
2022-10-23T00:34:46.130Z,16.02
2022-10-23T00:37:16.429Z,13.48
2022-10-23T00:39:46.489Z,14.25
2022-10-23T00:42:18.509Z,12.95
2022-10-23T00:44:51.371Z,14.68
2022-10-23T00:47:21.850Z,15.32
2022-10-23T00:49:52.127Z,12.57
2022-10-23T00:52:22.309Z,14.00
2022-10-23T00:54:52.891Z,13.98
2022-10-23T00:57:23.130Z,17.63
2022-10-23T00:59:53.534Z,13.80
2022-10-23T01:02:24.834Z,15.20
2022-10-23T01:04:55.062Z,16.90
2022-10-23T01:07:33.505Z,13.95
2022-10-23T01:10:16.981Z,13.70
2022-10-23T01:13:00.604Z,15.55
2022-10-23T01:15:40.135Z,18.08
2022-10-23T01:18:22.185Z,13.95
2022-10-23T01:21:01.396Z,17.23
2022-10-23T01:23:49.876Z,16.30
2022-10-23T01:26:51.559Z,22.10
2022-10-23T01:29:35.470Z,13.27
2022-10-23T01:32:20.130Z,18.05
2022-10-23T01:34:58.040Z,15.20
2022-10-23T01:37:57.775Z,14.02
2022-10-23T01:40:35.671Z,15.57
2022-10-23T01:43:14.329Z,16.52
2022-10-23T01:45:50.949Z,12.98
2022-10-23T01:48:29.069Z,13.65
2022-10-23T01:51:04.851Z,17.25
2022-10-23T01:53:38.682Z,13.37
2022-10-23T01:56:13.108Z,14.88
2022-10-23T01:58:47.739Z,14.02
2022-10-23T02:01:22.475Z,14.38
2022-10-23T02:03:54.671Z,14.48
2022-10-23T02:06:24.879Z,15.85
2022-10-23T02:08:55.108Z,15.05
2022-10-23T02:11:25.278Z,15.65
2022-10-23T02:14:20.340Z,11.73
2022-10-23T02:16:54.763Z,14.30
2022-10-23T02:19:46.088Z,11.65
2022-10-23T02:22:26.093Z,12.55
2022-10-23T02:25:03.865Z,13.10
2022-10-23T02:27:33.861Z,11.43
2022-10-23T02:30:07.493Z,15.30
2022-10-23T02:32:42.404Z,12.65
2022-10-23T02:35:13.540Z,12.88
2022-10-23T02:37:44.326Z,17.92
2022-10-23T02:40:14.757Z,16.38
2022-10-23T02:43:11.213Z,22.80
2022-10-23T02:46:00.048Z,16.13
2022-10-23T02:48:41.295Z,11.35
2022-10-23T02:51:18.606Z,12.38
2022-10-23T02:53:48.747Z,14.30
2022-10-23T02:56:29.311Z,15.13
2022-10-23T02:59:22.424Z,12.10
2022-10-23T03:02:00.374Z,13.85
2022-10-23T03:04:32.500Z,15.52
2022-10-23T03:07:02.679Z,13.57
2022-10-23T03:09:32.801Z,11.68
2022-10-23T03:12:02.979Z,14.40
2022-10-23T03:14:33.198Z,12.02
2022-10-23T03:17:04.470Z,16.42
2022-10-23T03:19:34.630Z,13.50
2022-10-23T03:22:04.818Z,14.68
2022-10-23T03:24:34.952Z,16.02
2022-10-23T03:27:05.062Z,15.32
2022-10-23T03:29:35.184Z,16.83
2022-10-23T03:32:05.479Z,17.02
2022-10-23T03:34:35.821Z,17.95
2022-10-23T03:37:06.081Z,16.98
2022-10-23T03:39:36.189Z,19.00
2022-10-23T03:42:06.413Z,12.70
2022-10-23T03:44:36.733Z,17.20
2022-10-23T03:47:07.130Z,17.85
2022-10-23T03:49:37.365Z,16.75
2022-10-23T03:52:08.824Z,17.77
2022-10-23T03:54:38.954Z,19.13
2022-10-23T03:57:09.052Z,19.08
2022-10-23T03:59:39.236Z,18.70
2022-10-23T04:02:09.290Z,16.35
2022-10-23T04:04:39.518Z,17.10
2022-10-23T04:07:10.107Z,12.95
2022-10-23T04:09:40.157Z,15.35
2022-10-23T04:12:10.358Z,14.88
2022-10-23T04:14:40.538Z,13.40
2022-10-23T04:17:10.636Z,19.88
2022-10-23T04:19:40.791Z,14.45
2022-10-23T04:22:10.996Z,14.93
2022-10-23T04:24:46.681Z,15.02
2022-10-23T04:27:16.878Z,17.52
2022-10-23T04:29:46.977Z,15.82
2022-10-23T04:32:17.113Z,20.17
2022-10-23T04:34:47.210Z,22.65
2022-10-23T04:37:17.657Z,22.80
2022-10-23T04:39:47.795Z,23.95
2022-10-23T04:42:17.922Z,19.65
2022-10-23T04:44:48.069Z,15.65
2022-10-23T04:47:18.192Z,20.17
2022-10-23T04:49:48.331Z,23.33
2022-10-23T04:52:18.566Z,18.15
2022-10-23T04:54:48.849Z,19.60
2022-10-23T04:57:18.880Z,20.92
2022-10-23T04:59:48.991Z,20.15
2022-10-23T05:02:19.145Z,22.98
2022-10-23T05:04:49.302Z,21.75
2022-10-23T05:07:19.371Z,23.52
2022-10-23T05:09:49.642Z,19.73
2022-10-23T05:12:20.186Z,23.73
2022-10-23T05:14:50.271Z,20.85
2022-10-23T05:17:29.332Z,24.38
2022-10-23T05:20:02.773Z,19.90
2022-10-23T05:22:36.654Z,21.83
2022-10-23T05:25:07.032Z,21.90
2022-10-23T05:27:37.188Z,21.33
2022-10-23T05:30:07.929Z,22.50
2022-10-23T05:32:38.888Z,24.95
2022-10-23T05:35:13.839Z,19.67
2022-10-23T05:37:47.304Z,20.38
2022-10-23T05:40:17.770Z,28.00
2022-10-23T05:42:48.268Z,23.00
2022-10-23T05:45:18.689Z,23.38
2022-10-23T05:47:49.420Z,23.48
2022-10-23T05:50:20.041Z,29.13
2022-10-23T05:52:50.222Z,26.40
2022-10-23T05:55:20.294Z,26.25
2022-10-23T05:57:50.336Z,24.13
2022-10-23T06:00:20.924Z,21.35
2022-10-23T06:02:50.969Z,21.55
2022-10-23T06:05:21.204Z,28.55
2022-10-23T06:07:51.390Z,27.65
2022-10-23T06:10:22.234Z,26.58
2022-10-23T06:12:52.427Z,23.40
2022-10-23T06:15:22.494Z,21.63
2022-10-23T06:17:52.634Z,19.17
2022-10-23T06:20:26.575Z,22.55
2022-10-23T06:22:59.054Z,21.23
2022-10-23T06:25:29.175Z,24.10
2022-10-23T06:28:02.511Z,22.73
2022-10-23T06:30:33.056Z,21.08
2022-10-23T06:33:05.835Z,24.60
2022-10-23T06:35:41.448Z,19.58
2022-10-23T06:38:16.960Z,20.20
2022-10-23T06:40:56.677Z,20.27
2022-10-23T06:43:28.163Z,17.77
2022-10-23T06:46:01.943Z,20.88
2022-10-23T06:48:33.996Z,19.05
2022-10-23T06:51:10.750Z,19.17
2022-10-23T06:53:41.795Z,19.50
2022-10-23T06:56:12.348Z,19.48
2022-10-23T06:58:43.572Z,22.55
2022-10-23T07:01:15.159Z,20.65
2022-10-23T07:03:45.558Z,24.27
2022-10-23T07:06:15.770Z,21.48
2022-10-23T07:08:45.920Z,21.73
2022-10-23T07:11:16.419Z,22.10
2022-10-23T07:13:46.874Z,20.15
2022-10-23T07:16:20.507Z,18.80
2022-10-23T07:19:00.323Z,22.20
2022-10-23T07:21:34.849Z,26.65
2022-10-23T07:24:05.173Z,22.13
2022-10-23T07:26:35.694Z,24.35
2022-10-23T07:29:05.930Z,20.75
2022-10-23T07:31:36.174Z,30.35
2022-10-23T07:34:06.885Z,24.50
2022-10-23T07:36:37.610Z,25.10
2022-10-23T07:39:07.930Z,23.55
2022-10-23T07:41:38.683Z,22.52
2022-10-23T07:44:08.993Z,20.98
2022-10-23T07:46:39.248Z,21.85
2022-10-23T07:49:11.197Z,25.05
2022-10-23T07:51:41.516Z,25.02
2022-10-23T07:54:12.554Z,28.42
2022-10-23T07:56:42.807Z,26.58
2022-10-23T07:59:17.706Z,21.92
2022-10-23T08:01:55.960Z,25.80
2022-10-23T08:04:29.951Z,22.27
2022-10-23T08:07:01.485Z,20.33
2022-10-23T08:09:32.298Z,24.50
2022-10-23T08:12:02.421Z,21.98
2022-10-23T08:14:32.609Z,23.95
2022-10-23T08:17:04.372Z,25.08
2022-10-23T08:19:34.683Z,24.08
2022-10-23T08:22:05.134Z,25.25
2022-10-23T08:24:35.269Z,23.38
2022-10-23T08:27:05.641Z,23.75
2022-10-23T08:29:36.295Z,22.05
2022-10-23T08:32:06.528Z,23.30
2022-10-23T08:34:38.093Z,20.45
2022-10-23T08:37:08.260Z,22.13
2022-10-23T08:39:43.950Z,17.17
2022-10-23T08:42:27.790Z,18.27
2022-10-23T08:45:21.682Z,19.48
2022-10-23T08:47:56.108Z,19.27
2022-10-23T08:50:30.813Z,20.73
2022-10-23T08:53:21.531Z,17.33
2022-10-23T08:56:09.539Z,17.58
2022-10-23T08:58:47.339Z,17.45
2022-10-23T09:01:41.121Z,21.83
2022-10-23T09:04:15.841Z,19.50
2022-10-23T09:10:04.253Z,19.73
2022-10-23T09:12:34.858Z,21.35
2022-10-23T09:15:13.187Z,21.67
2022-10-23T09:17:44.394Z,23.55
2022-10-23T09:20:22.024Z,24.85
2022-10-23T09:23:01.397Z,20.35
2022-10-23T09:25:37.143Z,24.30
2022-10-23T09:28:14.321Z,21.50
2022-10-23T09:30:44.450Z,25.88
2022-10-23T09:33:22.461Z,19.13
2022-10-23T09:35:54.395Z,23.90
2022-10-23T09:38:29.563Z,23.55
2022-10-23T09:41:06.358Z,22.55
2022-10-23T09:43:36.489Z,22.35
2022-10-23T09:46:07.759Z,24.83
2022-10-23T09:48:39.020Z,22.48
2022-10-23T09:51:22.195Z,20.67
2022-10-23T09:53:57.274Z,19.65
2022-10-23T09:56:32.256Z,22.52
2022-10-23T09:59:11.322Z,22.40
2022-10-23T10:01:51.619Z,26.67
2022-10-23T10:04:35.727Z,22.55
2022-10-23T10:07:24.615Z,19.33
2022-10-23T10:09:56.876Z,27.33
2022-10-23T10:12:42.377Z,26.95
2022-10-23T10:15:35.610Z,17.13
2022-10-23T10:18:27.109Z,19.25
2022-10-23T10:21:18.208Z,18.08
2022-10-23T10:24:02.683Z,19.52
2022-10-23T10:26:57.884Z,17.60
2022-10-23T10:30:02.197Z,18.13
2022-10-23T10:32:53.975Z,18.05
2022-10-23T10:35:40.056Z,18.27
2022-10-23T10:38:28.622Z,18.73
2022-10-23T10:41:21.525Z,21.58
2022-10-23T10:44:23.770Z,18.63
2022-10-23T10:47:03.999Z,18.58
2022-10-23T10:50:01.295Z,19.23
2022-10-23T10:53:02.844Z,23.17
2022-10-23T10:55:38.605Z,25.27
2022-10-23T10:58:18.457Z,27.53
2022-10-23T11:00:55.150Z,25.40
2022-10-23T11:03:39.823Z,22.15
2022-10-23T11:06:16.360Z,23.60
2022-10-23T11:08:57.277Z,23.05
2022-10-23T11:11:43.798Z,21.02
2022-10-23T11:14:18.876Z,19.20
2022-10-23T11:16:52.221Z,21.85
2022-10-23T11:19:27.645Z,21.85
2022-10-23T11:22:10.212Z,26.48
2022-10-23T11:25:05.389Z,18.17
2022-10-23T11:28:03.665Z,19.80
2022-10-23T11:30:54.709Z,21.23
2022-10-23T11:34:01.580Z,24.80
2022-10-23T11:36:49.297Z,22.17
2022-10-23T11:39:27.455Z,22.20
2022-10-23T11:42:00.557Z,29.10
2022-10-23T11:44:40.690Z,28.88
2022-10-23T11:47:36.379Z,42.83
2022-10-23T11:50:09.452Z,35.17
2022-10-23T11:53:09.250Z,56.05
2022-10-23T11:56:19.921Z,34.95
2022-10-23T11:58:56.873Z,32.05
2022-10-23T12:01:36.292Z,24.77
2022-10-23T12:04:17.654Z,21.27
2022-10-23T12:07:29.859Z,26.13
2022-10-23T12:10:27.160Z,17.60
2022-10-23T12:13:06.086Z,13.60
2022-10-23T12:15:36.226Z,13.77
2022-10-23T12:18:15.488Z,12.73
2022-10-23T12:21:04.819Z,12.32
2022-10-23T12:23:54.311Z,10.50
2022-10-23T12:26:36.254Z,6.20
2022-10-23T12:29:21.681Z,4.63
2022-10-23T12:32:40.341Z,4.73
2022-10-23T12:35:48.881Z,4.45
2022-10-23T12:38:33.957Z,6.82
2022-10-23T12:41:14.459Z,5.82
2022-10-23T12:43:50.576Z,4.22
2022-10-23T12:46:20.610Z,7.13
2022-10-23T12:48:53.034Z,5.45
2022-10-23T12:51:25.630Z,4.85
2022-10-23T12:53:56.361Z,5.53
2022-10-23T12:56:29.416Z,8.98
2022-10-23T12:59:02.099Z,6.22
2022-10-23T13:01:40.410Z,5.45
2022-10-23T13:04:33.224Z,4.93
2022-10-23T13:07:04.400Z,7.75
2022-10-23T13:09:41.921Z,9.63
2022-10-23T13:12:37.012Z,6.95
2022-10-23T13:15:07.143Z,6.43
2022-10-23T13:17:40.975Z,5.25
2022-10-23T13:20:17.901Z,5.63
2022-10-23T13:23:00.773Z,5.43
2022-10-23T13:25:37.197Z,6.95
2022-10-23T13:28:32.472Z,7.03
2022-10-23T13:31:06.470Z,4.47
2022-10-23T13:33:40.536Z,14.55
2022-10-23T13:36:13.578Z,9.02
2022-10-23T13:38:59.641Z,8.45
2022-10-23T13:41:37.827Z,7.88
2022-10-23T13:44:11.929Z,7.00
2022-10-23T13:46:43.051Z,5.72
2022-10-23T13:49:13.227Z,16.90
2022-10-23T13:51:53.061Z,20.75
2022-10-23T13:57:03.353Z,30.00
2022-10-23T13:59:33.595Z,22.30
2022-10-23T14:02:05.876Z,13.48
2022-10-23T14:04:36.338Z,13.77
2022-10-23T14:07:06.529Z,14.38
2022-10-23T14:09:36.614Z,7.47
2022-10-23T14:12:06.849Z,10.15
2022-10-23T14:14:37.079Z,10.10
2022-10-23T14:17:07.144Z,10.25
2022-10-23T14:22:12.919Z,13.23
2022-10-23T14:24:43.031Z,6.07
2022-10-23T14:27:13.078Z,6.45
2022-10-23T14:29:43.248Z,4.07
2022-10-23T14:32:13.398Z,4.22
2022-10-23T14:34:45.970Z,5.22
2022-10-23T14:37:16.410Z,4.03
2022-10-23T14:39:49.936Z,4.47
2022-10-23T14:42:20.558Z,12.90
2022-10-23T14:44:50.669Z,18.52
2022-10-23T14:47:20.782Z,23.10
2022-10-23T14:49:53.216Z,20.38
2022-10-23T14:52:23.872Z,21.48
2022-10-23T14:54:54.311Z,24.58
2022-10-23T14:57:25.024Z,18.98
2022-10-23T14:59:55.125Z,16.38
2022-10-23T15:02:25.218Z,15.52
2022-10-23T15:04:55.668Z,17.20
2022-10-23T15:07:25.835Z,14.90
2022-10-23T15:09:55.981Z,14.02
2022-10-23T15:12:26.149Z,20.80
2022-10-23T15:14:56.270Z,49.25
2022-10-23T15:17:26.298Z,24.83
2022-10-23T15:19:56.394Z,16.40
2022-10-23T15:22:27.117Z,13.27
2022-10-23T15:24:57.602Z,13.93
2022-10-23T15:27:27.791Z,9.70
2022-10-23T15:29:58.032Z,11.95
2022-10-23T15:32:28.262Z,9.05
2022-10-23T15:35:00.248Z,10.82
2022-10-23T15:37:30.396Z,10.95
2022-10-23T15:40:02.393Z,11.60
2022-10-23T15:42:32.880Z,8.20
2022-10-23T15:45:02.989Z,10.18
2022-10-23T15:47:33.081Z,7.63
2022-10-23T15:50:03.470Z,7.75
2022-10-23T15:52:33.630Z,9.05
2022-10-23T15:55:04.400Z,11.13
2022-10-23T15:57:34.452Z,10.57
2022-10-23T16:00:06.929Z,12.27
2022-10-23T16:02:37.711Z,12.02
2022-10-23T16:05:08.103Z,13.05
2022-10-23T16:07:38.833Z,17.25
2022-10-23T16:10:09.181Z,12.07
2022-10-23T16:12:39.409Z,10.60
2022-10-23T16:15:12.710Z,14.00
2022-10-23T16:17:43.215Z,9.93
2022-10-23T16:20:13.578Z,6.60
2022-10-23T16:22:45.104Z,8.07
2022-10-23T16:25:15.319Z,8.88
2022-10-23T16:27:46.219Z,8.50
2022-10-23T16:30:17.417Z,11.80
2022-10-23T16:32:48.161Z,10.45
2022-10-23T16:35:18.664Z,25.92
2022-10-23T16:37:49.212Z,52.80
2022-10-23T16:40:19.395Z,130.77
2022-10-23T16:42:49.410Z,163.38
2022-10-23T16:45:19.559Z,153.82
2022-10-23T16:47:49.945Z,132.38
2022-10-23T16:50:20.110Z,104.38
2022-10-23T16:52:53.318Z,97.35
2022-10-23T16:55:25.773Z,100.13
2022-10-23T16:57:57.080Z,104.30
2022-10-23T17:00:35.000Z,90.75
2022-10-23T17:03:05.514Z,80.25
2022-10-23T17:05:35.890Z,82.13
2022-10-23T17:08:06.016Z,116.70
2022-10-23T17:10:36.164Z,119.38
2022-10-23T17:13:06.279Z,91.93
2022-10-23T17:15:36.533Z,82.40
2022-10-23T17:18:06.801Z,96.38
2022-10-23T17:20:37.057Z,70.90
2022-10-23T17:23:07.205Z,67.57
2022-10-23T17:25:40.944Z,62.28
2022-10-23T17:28:11.060Z,63.65
2022-10-23T17:30:42.427Z,58.90
2022-10-23T17:33:12.808Z,53.13
2022-10-23T17:35:44.765Z,54.50
2022-10-23T17:38:19.282Z,51.05
2022-10-23T17:40:49.377Z,64.22
2022-10-23T17:43:19.589Z,67.85
2022-10-23T17:45:51.894Z,77.40
2022-10-23T17:48:21.985Z,76.50
2022-10-23T17:51:05.115Z,74.60
2022-10-23T17:53:37.127Z,84.30
2022-10-23T17:56:10.389Z,87.65
2022-10-23T17:58:40.500Z,91.97
2022-10-23T18:01:13.643Z,86.75
2022-10-23T18:03:44.371Z,81.68
2022-10-23T18:06:23.373Z,94.00
2022-10-23T18:08:56.864Z,129.20
2022-10-23T18:11:30.274Z,104.57
2022-10-23T18:14:01.547Z,112.30
2022-10-23T18:16:32.084Z,160.48
2022-10-23T18:19:02.777Z,156.68
2022-10-23T18:21:33.029Z,152.10
2022-10-23T18:24:04.052Z,194.63
2022-10-23T18:26:39.381Z,146.43
2022-10-23T18:29:11.407Z,113.78
2022-10-23T18:31:41.912Z,102.70
2022-10-23T18:34:19.435Z,106.88
2022-10-23T18:36:51.549Z,100.75
2022-10-23T18:39:24.299Z,91.03
2022-10-23T18:41:57.327Z,73.60
2022-10-23T18:44:29.343Z,79.55
2022-10-23T18:47:00.430Z,70.05
2022-10-23T18:49:30.784Z,77.15
2022-10-23T18:52:00.845Z,53.75
2022-10-23T18:54:31.145Z,53.33
2022-10-23T18:57:01.239Z,52.95
2022-10-23T18:59:32.823Z,45.42
2022-10-23T19:02:03.729Z,33.97
2022-10-23T19:04:36.312Z,40.00
2022-10-23T19:07:06.613Z,33.78
2022-10-23T19:09:36.828Z,29.35
2022-10-23T19:12:07.213Z,31.30
2022-10-23T19:14:37.502Z,31.13
2022-10-23T19:17:18.390Z,24.92
2022-10-23T19:19:57.074Z,28.17
2022-10-23T19:22:34.363Z,26.52
2022-10-23T19:25:12.900Z,30.42
2022-10-23T19:27:45.930Z,28.67
2022-10-23T19:30:21.844Z,33.15
2022-10-23T19:32:52.928Z,42.72
2022-10-23T19:35:23.541Z,48.50
2022-10-23T19:37:53.732Z,61.20
2022-10-23T19:40:24.409Z,58.45
2022-10-23T19:42:54.881Z,55.80
2022-10-23T19:45:25.022Z,51.70
2022-10-23T19:47:55.133Z,45.35
2022-10-23T19:50:25.316Z,31.90
2022-10-23T19:52:55.511Z,45.42
2022-10-23T19:55:28.666Z,39.85
2022-10-23T19:57:58.806Z,46.85
2022-10-23T20:00:29.050Z,50.25
2022-10-23T20:03:00.197Z,45.90
2022-10-23T20:05:31.583Z,45.10
2022-10-23T20:08:01.816Z,33.58
2022-10-23T20:10:31.931Z,29.90
2022-10-23T20:13:18.782Z,31.48
2022-10-23T20:15:50.276Z,27.75
2022-10-23T20:18:20.949Z,25.92
2022-10-23T20:20:51.085Z,25.73
2022-10-23T20:23:21.272Z,27.98
2022-10-23T20:25:51.511Z,23.08
2022-10-23T20:28:21.937Z,31.23
2022-10-23T20:30:52.110Z,30.40
2022-10-23T20:33:22.832Z,34.35
2022-10-23T20:35:52.936Z,29.67
2022-10-23T20:38:23.251Z,26.17
2022-10-23T20:40:57.243Z,26.67
2022-10-23T20:43:27.634Z,21.35
2022-10-23T20:45:59.660Z,25.10
2022-10-23T20:48:29.791Z,28.75
2022-10-23T20:51:03.790Z,24.95
2022-10-23T20:53:35.581Z,23.55
2022-10-23T20:56:12.392Z,25.13
2022-10-23T20:58:42.809Z,28.25
2022-10-23T21:01:19.112Z,24.77
2022-10-23T21:03:51.305Z,21.25
2022-10-23T21:06:21.414Z,24.85
2022-10-23T21:09:03.622Z,17.38
2022-10-23T21:11:35.644Z,19.67
2022-10-23T21:14:05.939Z,24.42
2022-10-23T21:16:40.929Z,21.35
2022-10-23T21:19:14.449Z,20.15
2022-10-23T21:21:44.749Z,21.45
2022-10-23T21:24:16.622Z,25.38
2022-10-23T21:26:47.382Z,20.92
2022-10-23T21:29:19.045Z,17.98
2022-10-23T21:31:54.659Z,17.23
2022-10-23T21:34:26.307Z,18.50
2022-10-23T21:37:13.366Z,18.52
2022-10-23T21:39:44.671Z,17.65
2022-10-23T21:42:15.578Z,16.15
2022-10-23T21:44:45.904Z,19.83
2022-10-23T21:47:16.032Z,20.08
2022-10-23T21:49:46.261Z,18.45
2022-10-23T21:52:19.071Z,16.10
2022-10-23T21:54:53.879Z,14.00
2022-10-23T21:57:24.066Z,20.25
2022-10-23T21:59:54.861Z,17.90
2022-10-23T22:02:25.335Z,19.30
2022-10-23T22:04:55.601Z,21.65
2022-10-23T22:07:25.899Z,24.05
2022-10-23T22:09:55.986Z,18.77
2022-10-23T22:12:26.200Z,22.33
2022-10-23T22:14:56.447Z,19.65
2022-10-23T22:17:26.625Z,22.95
2022-10-23T22:19:56.823Z,22.75
2022-10-23T22:22:26.918Z,21.17
2022-10-23T22:24:57.113Z,21.60
2022-10-23T22:27:27.868Z,20.85
2022-10-23T22:29:58.686Z,21.40
2022-10-23T22:32:28.809Z,24.20
2022-10-23T22:34:58.991Z,26.17
2022-10-23T22:37:29.079Z,20.05
2022-10-23T22:40:00.352Z,21.98
2022-10-23T22:42:30.513Z,19.60
2022-10-23T22:45:00.658Z,22.45
2022-10-23T22:47:30.770Z,21.33
2022-10-23T22:50:00.791Z,22.83
2022-10-23T22:52:30.986Z,22.73
2022-10-23T22:55:01.146Z,23.15
2022-10-23T22:57:31.274Z,21.88
2022-10-23T23:00:01.400Z,19.40
2022-10-23T23:02:31.469Z,23.95
2022-10-23T23:05:01.638Z,22.80
2022-10-23T23:07:31.700Z,21.33
2022-10-23T23:10:01.843Z,22.83
2022-10-23T23:12:31.970Z,24.85
2022-10-23T23:15:02.189Z,21.38
2022-10-23T23:17:32.286Z,22.25
2022-10-23T23:20:02.648Z,21.88
2022-10-23T23:22:32.769Z,21.58
2022-10-23T23:25:02.825Z,24.52
2022-10-23T23:27:32.876Z,21.48
2022-10-23T23:30:05.668Z,22.33
2022-10-23T23:32:36.353Z,28.17
2022-10-23T23:35:06.609Z,22.00
2022-10-23T23:37:36.734Z,21.83
2022-10-23T23:40:07.440Z,22.67
2022-10-23T23:42:37.477Z,24.90
2022-10-23T23:45:14.654Z,24.42
2022-10-23T23:47:45.479Z,24.60
2022-10-23T23:50:16.296Z,21.15
2022-10-23T23:52:46.627Z,27.55
2022-10-23T23:55:16.928Z,23.17
2022-10-23T23:57:47.323Z,25.73
